Time;durP1;ratioP1;P1;durP2;ratioP2;P2;SDS_P1;SDS_P2;PMS_P1;PMS_P2;Temp;Humidity;BMP_temperature;BMP_pressure;BME280_temperature;BME280_humidity;BME280_pressure;Samples;Min_cycle;Max_cycle;Signal;HPM_P1;HPM_P2
2022/09/27 00:00:37;;;;;;;;;;;;;;;18.98;53.17;99488.75;5068730;28;19932;-53
2022/09/27 00:03:03;;;;;;;;;;;;;;;18.99;53.15;99494.97;5069030;28;19982;-56
2022/09/27 00:05:28;;;;;;;;;;;;;;;18.98;52.97;99494.13;5068536;28;19908;-51
2022/09/27 00:07:53;;;;;;;;;;;;;;;18.98;53.22;99496.00;5068050;28;21413;-55
2022/09/27 00:10:18;;;;;;;;;;;;;;;18.98;52.94;99496.81;5069225;28;19909;-55
2022/09/27 00:12:44;;;;;;;;;;;;;;;18.97;52.89;99492.47;5068972;28;19913;-54
2022/09/27 00:15:09;;;;;;;;;;;;;;;18.96;53.08;99498.91;5068817;28;19908;-54
2022/09/27 00:17:35;;;;;;;;;;;;;;;18.96;52.88;99492.69;5065370;28;19932;-53
2022/09/27 00:20:00;;;;;;;;;;;;;;;18.95;53.05;99497.25;5065743;28;19908;-54
2022/09/27 00:22:25;;;;;;;;;;;;;;;18.96;52.90;99516.94;5064750;28;19921;-54
2022/09/27 00:24:50;;;;;;;;;;;;;;;18.95;52.98;99515.28;5065025;28;19912;-55
2022/09/27 00:27:16;;;;;;;;;;;;;;;18.94;52.99;99516.28;5065888;28;19908;-56
2022/09/27 00:29:41;;;;;;;;;;;;;;;18.94;52.93;99519.81;5059277;28;19916;-54
2022/09/27 00:32:07;;;;;;;;;;;;;;;18.93;53.11;99515.47;5045664;28;19965;-56
2022/09/27 00:34:32;;;;;;;;;;;;;;;18.93;52.96;99515.47;5045304;28;19951;-55
2022/09/27 00:36:57;;;;;;;;;;;;;;;18.93;52.94;99510.06;5045248;28;19948;-55
2022/09/27 00:39:22;;;;;;;;;;;;;;;18.93;52.84;99511.94;5044863;28;19916;-55
2022/09/27 00:41:48;;;;;;;;;;;;;;;18.93;53.07;99517.31;5045426;28;19939;-53
2022/09/27 00:44:25;;;;;;;;;;;;;;;18.93;52.81;99528.09;5045258;28;19941;-56
2022/09/27 00:46:59;;;;;;;;;;;;;;;18.92;53.04;99531.84;5045679;28;19916;-54
2022/09/27 00:49:29;;;;;;;;;;;;;;;18.91;53.06;99536.41;5045212;28;19952;-55
2022/09/27 00:51:55;;;;;;;;;;;;;;;18.91;53.02;99532.88;5045254;28;19932;-54
2022/09/27 00:54:20;;;;;;;;;;;;;;;18.90;53.07;99533.88;5062479;28;19920;-53
2022/09/27 00:56:46;;;;;;;;;;;;;;;18.90;52.84;99544.66;5065430;28;19916;-52
2022/09/27 00:59:13;;;;;;;;;;;;;;;18.90;52.86;99541.97;5064878;28;19967;-52
2022/09/27 01:01:38;;;;;;;;;;;;;;;18.88;53.07;99547.56;5063312;28;19984;-54
2022/09/27 01:04:07;;;;;;;;;;;;;;;18.88;52.76;99544.03;5061659;28;19909;-52
2022/09/27 01:06:32;;;;;;;;;;;;;;;18.88;53.09;99533.28;5063523;28;19955;-51
2022/09/27 01:08:58;;;;;;;;;;;;;;;18.87;53.07;99535.13;5063896;28;19909;-52
2022/09/27 01:11:41;;;;;;;;;;;;;;;18.87;52.95;99523.53;5064283;28;20003;-54
2022/09/27 01:14:09;;;;;;;;;;;;;;;18.87;52.92;99528.91;5063854;28;19909;-52
2022/09/27 01:16:41;;;;;;;;;;;;;;;18.85;52.79;99531.78;5063986;28;19909;-54
2022/09/27 01:19:09;;;;;;;;;;;;;;;18.85;52.97;99534.50;5063935;28;19923;-52
2022/09/27 01:21:42;;;;;;;;;;;;;;;18.86;52.96;99529.94;5063784;28;19908;-52
2022/09/27 01:24:20;;;;;;;;;;;;;;;18.84;52.79;99524.75;5061964;28;19919;-52
2022/09/27 01:26:49;;;;;;;;;;;;;;;18.85;52.92;99536.34;5064092;28;20315;-52
2022/09/27 01:29:17;;;;;;;;;;;;;;;18.84;52.77;99537.41;5062673;28;19924;-53
2022/09/27 01:32:01;;;;;;;;;;;;;;;18.83;52.64;99536.56;5094539;28;19990;-51
2022/09/27 01:34:32;;;;;;;;;;;;;;;18.83;52.79;99541.13;5063297;28;19912;-52
2022/09/27 01:37:04;;;;;;;;;;;;;;;18.82;52.98;99539.44;5085790;28;19905;-53
2022/09/27 01:39:42;;;;;;;;;;;;;;;18.82;52.93;99542.13;5043411;28;19909;-55
2022/09/27 01:42:11;;;;;;;;;;;;;;;18.82;52.86;99536.75;5075555;28;19920;-49
2022/09/27 01:44:42;;;;;;;;;;;;;;;18.81;52.88;99533.22;5043475;28;20290;-51
2022/09/27 01:47:10;;;;;;;;;;;;;;;18.80;52.79;99534.28;5043555;28;19935;-51
2022/09/27 01:49:44;;;;;;;;;;;;;;;18.79;53.03;99538.00;5043432;28;20125;-55
2022/09/27 01:52:09;;;;;;;;;;;;;;;18.79;52.80;99534.47;5067527;28;19913;-53
2022/09/27 01:54:40;;;;;;;;;;;;;;;18.79;52.65;99534.47;5094895;28;19995;-50
2022/09/27 01:57:05;;;;;;;;;;;;;;;18.79;52.61;99534.47;5095767;28;19904;-53
2022/09/27 01:59:32;;;;;;;;;;;;;;;18.78;52.69;99528.28;5061631;28;20444;-53
2022/09/27 02:01:59;;;;;;;;;;;;;;;18.77;52.76;99528.44;5095240;28;19912;-54
2022/09/27 02:04:29;;;;;;;;;;;;;;;18.76;52.66;99527.63;5077585;28;19919;-54
2022/09/27 02:06:58;;;;;;;;;;;;;;;18.76;52.70;99524.94;5074873;28;19940;-51
2022/09/27 02:09:30;;;;;;;;;;;;;;;18.76;52.79;99522.25;5042714;28;19913;-55
2022/09/27 02:11:56;;;;;;;;;;;;;;;18.76;52.91;99526.78;5091914;28;19908;-53
2022/09/27 02:14:30;;;;;;;;;;;;;;;18.76;52.88;99526.78;5061735;28;20004;-52
2022/09/27 02:16:58;;;;;;;;;;;;;;;18.75;52.73;99527.84;5061861;28;19904;-52
2022/09/27 02:19:23;;;;;;;;;;;;;;;18.74;52.83;99529.69;5062818;28;19966;-52
2022/09/27 02:21:56;;;;;;;;;;;;;;;18.74;52.87;99527.00;5062257;28;19987;-52
2022/09/27 02:24:23;;;;;;;;;;;;;;;18.73;52.66;99528.88;5062426;28;19970;-55
2022/09/27 02:26:49;;;;;;;;;;;;;;;18.72;52.79;99519.13;5062852;28;19940;-52
2022/09/27 02:29:14;;;;;;;;;;;;;;;18.72;52.65;99537.13;5061464;28;20348;-52
2022/09/27 02:31:39;;;;;;;;;;;;;;;18.72;52.66;99529.06;5062606;28;19909;-53
2022/09/27 02:34:06;;;;;;;;;;;;;;;18.70;52.67;99528.44;5062506;28;19913;-53
2022/09/27 02:36:31;;;;;;;;;;;;;;;18.70;52.94;99529.25;5065856;28;19908;-51
2022/09/27 02:38:56;;;;;;;;;;;;;;;18.70;52.69;99536.53;5080738;28;19975;-53
2022/09/27 02:41:22;;;;;;;;;;;;;;;18.70;52.74;99526.56;5082931;28;19908;-54
2022/09/27 02:43:48;;;;;;;;;;;;;;;18.70;52.58;99528.44;5082630;28;19909;-53
2022/09/27 02:46:37;;;;;;;;;;;;;;;18.68;52.57;99525.06;5081276;28;19908;-51
2022/09/27 02:49:21;;;;;;;;;;;;;;;18.68;52.70;99520.50;5079336;28;20003;-49
2022/09/27 02:51:50;;;;;;;;;;;;;;;18.67;52.81;99521.56;5081243;28;20281;-54
2022/09/27 02:54:16;;;;;;;;;;;;;;;18.68;52.84;99519.69;5060745;28;19912;-54
2022/09/27 02:56:51;;;;;;;;;;;;;;;18.67;52.58;99518.03;5062452;28;19909;-51
2022/09/27 02:59:20;;;;;;;;;;;;;;;18.66;52.83;99519.06;5060921;28;19980;-53
2022/09/27 03:01:54;;;;;;;;;;;;;;;18.67;52.65;99512.66;5062150;28;19963;-53
2022/09/27 03:04:22;;;;;;;;;;;;;;;18.65;52.60;99509.34;5061927;28;19908;-53
2022/09/27 03:06:47;;;;;;;;;;;;;;;18.65;52.63;99512.88;5092041;28;19948;-54
2022/09/27 03:09:23;;;;;;;;;;;;;;;18.65;52.79;99510.16;5073933;28;19916;-54
2022/09/27 03:11:48;;;;;;;;;;;;;;;18.64;52.80;99513.88;5057910;28;19909;-51
2022/09/27 03:14:13;;;;;;;;;;;;;;;18.64;52.54;99521.13;5062342;28;19966;-50
2022/09/27 03:16:39;;;;;;;;;;;;;;;18.63;52.93;99512.22;5061946;28;20294;-53
2022/09/27 03:19:04;;;;;;;;;;;;;;;18.62;52.69;99507.88;5061699;28;19988;-51
2022/09/27 03:21:30;;;;;;;;;;;;;;;18.62;52.55;99515.13;5060656;28;19938;-52
2022/09/27 03:23:55;;;;;;;;;;;;;;;18.62;52.54;99513.25;5061677;28;20043;-51
2022/09/27 03:26:20;;;;;;;;;;;;;;;18.61;52.65;99519.69;5062151;28;20350;-56
2022/09/27 03:28:45;;;;;;;;;;;;;;;18.60;52.68;99515.28;5060952;28;19912;-50
2022/09/27 03:31:10;;;;;;;;;;;;;;;18.61;52.55;99518.84;5062009;28;19963;-54
2022/09/27 03:33:35;;;;;;;;;;;;;;;18.60;52.60;99526.06;5061933;28;19913;-53
2022/09/27 03:36:01;;;;;;;;;;;;;;;18.59;52.57;99518.19;5061690;28;19913;-51
2022/09/27 03:38:26;;;;;;;;;;;;;;;18.60;52.53;99520.69;5061069;28;20380;-52
2022/09/27 03:40:51;;;;;;;;;;;;;;;18.59;52.50;99524.41;5062372;28;19992;-49
2022/09/27 03:43:17;;;;;;;;;;;;;;;18.58;52.63;99525.44;5062001;28;19924;-52
2022/09/27 03:45:44;;;;;;;;;;;;;;;18.59;52.55;99528.97;5061988;28;19916;-52
2022/09/27 03:48:09;;;;;;;;;;;;;;;18.57;52.58;99526.50;5060888;28;19916;-49
2022/09/27 03:50:34;;;;;;;;;;;;;;;18.56;52.57;99521.28;5062235;28;19908;-53
2022/09/27 03:52:59;;;;;;;;;;;;;;;18.56;52.67;99523.97;5064374;28;19962;-55
2022/09/27 03:55:25;;;;;;;;;;;;;;;18.56;52.49;99524.81;5065422;28;20083;-56
2022/09/27 03:57:50;;;;;;;;;;;;;;;18.56;52.56;99526.66;5065859;28;19958;-54
2022/09/27 04:00:16;;;;;;;;;;;;;;;18.32;52.75;99496.56;5065449;28;19943;-53
2022/09/27 04:02:41;;;;;;;;;;;;;;;18.54;52.57;99537.66;5065432;28;19923;-56
2022/09/27 04:05:06;;;;;;;;;;;;;;;18.55;52.60;99535.78;5064983;28;19908;-51
2022/09/27 04:07:31;;;;;;;;;;;;;;;18.55;52.59;99541.16;5064978;28;19919;-51
2022/09/27 04:09:57;;;;;;;;;;;;;;;18.54;52.74;99542.19;5064805;28;20377;-55
2022/09/27 04:12:23;;;;;;;;;;;;;;;18.53;52.74;99544.06;5065356;28;19951;-54
2022/09/27 04:14:48;;;;;;;;;;;;;;;18.53;52.62;99541.38;5065339;28;19916;-55
2022/09/27 04:17:13;;;;;;;;;;;;;;;18.53;52.66;99535.16;5065128;28;19912;-55
2022/09/27 04:19:38;;;;;;;;;;;;;;;18.53;52.53;99535.16;5060310;28;20224;-52
2022/09/27 04:22:04;;;;;;;;;;;;;;;18.52;52.63;99542.41;5064429;28;19916;-53
2022/09/27 04:24:30;;;;;;;;;;;;;;;18.52;52.56;99546.94;5064381;28;19912;-52
2022/09/27 04:26:55;;;;;;;;;;;;;;;18.52;52.56;99546.94;5064690;28;19909;-55
2022/09/27 04:29:21;;;;;;;;;;;;;;;18.51;52.81;99540.72;5063666;28;20038;-56
2022/09/27 04:31:46;;;;;;;;;;;;;;;18.52;52.87;99541.56;5062035;28;19909;-53
2022/09/27 04:34:11;;;;;;;;;;;;;;;18.51;52.64;99534.50;5064692;28;19908;-55
2022/09/27 04:36:37;;;;;;;;;;;;;;;18.52;52.76;99539.72;5064022;28;20004;-51
2022/09/27 04:39:04;;;;;;;;;;;;;;;18.51;52.96;99539.91;5064614;28;19909;-55
2022/09/27 04:41:29;;;;;;;;;;;;;;;18.51;53.08;99539.91;5064829;28;19920;-54
2022/09/27 04:43:55;;;;;;;;;;;;;;;18.51;52.83;99554.19;5064293;28;19943;-55
2022/09/27 04:46:20;;;;;;;;;;;;;;;18.49;53.13;99557.09;5064410;28;19940;-50
2022/09/27 04:48:48;;;;;;;;;;;;;;;18.51;53.17;99564.13;5064690;28;19938;-53
2022/09/27 04:51:16;;;;;;;;;;;;;;;18.51;52.97;99564.13;5064356;28;19930;-53
2022/09/27 04:53:41;;;;;;;;;;;;;;;18.51;53.08;99561.44;5063987;28;19952;-54
2022/09/27 04:56:06;;;;;;;;;;;;;;;18.51;53.33;99570.34;5064255;28;19977;-54
2022/09/27 04:58:33;;;;;;;;;;;;;;;18.51;53.53;99570.34;5064129;28;20154;-55
2022/09/27 05:00:58;;;;;;;;;;;;;;;18.52;53.13;99568.47;5064263;28;19908;-54
2022/09/27 05:03:23;;;;;;;;;;;;;;;18.51;53.32;99564.94;5063610;28;19913;-52
2022/09/27 05:05:48;;;;;;;;;;;;;;;18.51;53.27;99556.88;5063831;28;19921;-53
2022/09/27 05:08:13;;;;;;;;;;;;;;;18.50;53.22;99552.53;5057227;28;19938;-52
2022/09/27 05:10:39;;;;;;;;;;;;;;;18.50;53.43;99555.22;5065263;28;19913;-53
2022/09/27 05:13:05;;;;;;;;;;;;;;;18.51;53.14;99553.34;5065266;28;20285;-54
2022/09/27 05:15:30;;;;;;;;;;;;;;;18.49;53.17;99550.88;5064104;28;19912;-53
2022/09/27 05:17:55;;;;;;;;;;;;;;;18.50;53.16;99557.91;5066413;28;19980;-54
2022/09/27 05:20:20;;;;;;;;;;;;;;;18.51;53.15;99566.81;5064377;28;19912;-53
2022/09/27 05:22:45;;;;;;;;;;;;;;;18.48;53.44;99558.13;5065070;28;19916;-51
2022/09/27 05:25:11;;;;;;;;;;;;;;;18.49;53.26;99554.41;5064247;28;19913;-54
2022/09/27 05:27:36;;;;;;;;;;;;;;;18.49;53.13;99558.94;5064700;28;19984;-51
2022/09/27 05:30:01;;;;;;;;;;;;;;;18.49;53.30;99564.34;5064661;28;20044;-53
2022/09/27 05:32:27;;;;;;;;;;;;;;;18.48;53.58;99571.56;5064632;28;19909;-53
2022/09/27 05:34:55;;;;;;;;;;;;;;;18.46;53.50;99570.09;5084173;28;19915;-51
2022/09/27 05:37:20;;;;;;;;;;;;;;;18.47;53.24;99567.19;5063953;28;19926;-53
2022/09/27 05:39:45;;;;;;;;;;;;;;;18.46;53.23;99570.09;5063790;28;19924;-53
2022/09/27 05:42:14;;;;;;;;;;;;;;;18.46;53.66;99567.41;5064451;28;19947;-52
2022/09/27 05:44:39;;;;;;;;;;;;;;;18.45;53.39;99565.75;5062904;28;19915;-51
2022/09/27 05:47:04;;;;;;;;;;;;;;;18.44;53.68;99566.78;5064407;28;19909;-51
2022/09/27 05:49:30;;;;;;;;;;;;;;;18.44;53.66;99562.25;5063571;28;19920;-50
2022/09/27 05:51:55;;;;;;;;;;;;;;;18.43;53.43;99560.56;5064004;28;19908;-49
2022/09/27 05:54:20;;;;;;;;;;;;;;;18.43;53.46;99562.41;5063704;28;19913;-50
2022/09/27 05:56:45;;;;;;;;;;;;;;;18.43;53.31;99568.63;5064108;28;19917;-50
2022/09/27 05:59:11;;;;;;;;;;;;;;;18.42;53.58;99580.44;5063935;28;19928;-53
2022/09/27 06:01:36;;;;;;;;;;;;;;;18.43;53.50;99574.00;5063793;28;19923;-51
2022/09/27 06:04:02;;;;;;;;;;;;;;;18.41;53.66;99578.78;5063852;28;19919;-49
2022/09/27 06:06:27;;;;;;;;;;;;;;;18.42;53.40;99580.44;5063364;28;20134;-51
2022/09/27 06:08:52;;;;;;;;;;;;;;;18.43;53.39;99586.63;5063404;28;20151;-53
2022/09/27 06:11:17;;;;;;;;;;;;;;;18.43;53.59;99584.78;5063751;28;19912;-50
2022/09/27 06:13:43;;;;;;;;;;;;;;;18.43;53.40;99583.94;5064615;28;19919;-50
2022/09/27 06:16:09;;;;;;;;;;;;;;;18.42;53.35;99580.44;5065926;28;20001;-48
2022/09/27 06:18:34;;;;;;;;;;;;;;;18.42;53.54;99579.59;5084258;28;19908;-50
2022/09/27 06:20:59;;;;;;;;;;;;;;;18.41;53.25;99584.16;5082803;28;19930;-50
2022/09/27 06:23:25;;;;;;;;;;;;;;;18.42;53.50;99591.19;5083204;28;19957;-46
2022/09/27 06:25:50;;;;;;;;;;;;;;;18.45;53.40;99600.75;5083998;28;19915;-48
2022/09/27 06:28:16;;;;;;;;;;;;;;;18.43;53.21;99600.91;5074179;28;19923;-50
2022/09/27 06:30:45;;;;;;;;;;;;;;;18.45;53.17;99606.13;5064102;28;19919;-50
2022/09/27 06:33:11;;;;;;;;;;;;;;;18.44;53.43;99602.59;5063956;28;20387;-47
2022/09/27 06:35:36;;;;;;;;;;;;;;;18.45;52.99;99611.50;5063644;28;19912;-49
2022/09/27 06:38:02;;;;;;;;;;;;;;;18.46;53.30;99610.47;5076740;28;19977;-47
2022/09/27 06:40:28;;;;;;;;;;;;;;;18.23;53.26;99573.91;5078145;28;19923;-56
2022/09/27 06:42:53;;;;;;;;;;;;;;;18.47;53.07;99618.34;5062148;28;19916;-57
2022/09/27 06:45:19;;;;;;;;;;;;;;;18.48;53.15;99614.66;5062195;28;19962;-49
2022/09/27 06:47:45;;;;;;;;;;;;;;;18.51;53.17;99615.25;5062028;28;19956;-58
2022/09/27 06:50:11;;;;;;;;;;;;;;;18.52;53.34;99619.59;5059960;28;19915;-56
2022/09/27 06:52:36;;;;;;;;;;;;;;;18.55;53.09;99617.34;5059312;28;19912;-56
2022/09/27 06:55:02;;;;;;;;;;;;;;;18.57;53.19;99611.78;5061886;28;19912;-58
2022/09/27 07:00:25;;;;;;;;;;;;;;;18.60;53.20;99617.59;5061581;28;19926;-58
2022/09/27 07:02:50;;;;;;;;;;;;;;;18.62;53.05;99620.94;5063056;28;19917;-59
2022/09/27 07:05:16;;;;;;;;;;;;;;;18.63;53.19;99619.06;5062706;28;19939;-57
2022/09/27 07:07:42;;;;;;;;;;;;;;;18.66;53.15;99626.75;5066071;28;19913;-55
2022/09/27 07:10:08;;;;;;;;;;;;;;;18.67;53.04;99623.03;5062370;28;19948;-56
2022/09/27 07:12:34;;;;;;;;;;;;;;;18.68;53.21;99630.06;5062968;28;19916;-57
2022/09/27 07:15:00;;;;;;;;;;;;;;;18.68;53.05;99625.50;5062446;28;19957;-66
2022/09/27 07:17:26;;;;;;;;;;;;;;;18.68;53.07;99624.69;5063132;28;19952;-57
2022/09/27 07:19:51;;;;;;;;;;;;;;;18.69;53.07;99620.94;5062543;28;19920;-52
2022/09/27 07:22:17;;;;;;;;;;;;;;;18.70;52.83;99626.19;5062293;28;19913;-57
2022/09/27 07:24:42;;;;;;;;;;;;;;;18.71;52.67;99635.09;5062084;28;19940;-58
2022/09/27 07:27:07;;;;;;;;;;;;;;;18.72;52.85;99636.75;5065215;28;19917;-54
2022/09/27 07:29:32;;;;;;;;;;;;;;;18.72;52.87;99632.19;5066132;28;20007;-57
2022/09/27 07:31:57;;;;;;;;;;;;;;;18.73;52.99;99630.31;5065885;28;19912;-51
2022/09/27 07:34:23;;;;;;;;;;;;;;;18.73;52.86;99630.31;5066361;28;20277;-51
2022/09/27 07:36:48;;;;;;;;;;;;;;;18.75;52.96;99630.97;5067082;28;19912;-54
2022/09/27 07:39:13;;;;;;;;;;;;;;;18.76;52.84;99635.31;5065829;28;20373;-55
2022/09/27 07:41:39;;;;;;;;;;;;;;;18.79;52.76;99629.56;5066892;28;19909;-56
2022/09/27 07:44:06;;;;;;;;;;;;;;;18.81;52.82;99637.41;5064971;28;20439;-50
2022/09/27 07:46:32;;;;;;;;;;;;;;;18.81;52.79;99629.34;5066359;28;19908;-49
2022/09/27 07:48:57;;;;;;;;;;;;;;;18.83;52.67;99635.38;5066626;28;19915;-48
2022/09/27 07:51:23;;;;;;;;;;;;;;;18.83;52.57;99641.59;5066065;28;19959;-53
2022/09/27 07:53:48;;;;;;;;;;;;;;;18.84;52.39;99647.81;5066288;28;19913;-54
2022/09/27 07:56:13;;;;;;;;;;;;;;;18.84;52.27;99645.94;5065797;28;19912;-48
2022/09/27 07:58:39;;;;;;;;;;;;;;;18.85;51.98;99647.59;5066897;28;19952;-54
2022/09/27 08:01:04;;;;;;;;;;;;;;;18.86;52.34;99651.97;5066792;28;19917;-50
2022/09/27 08:03:30;;;;;;;;;;;;;;;18.88;51.86;99647.22;5066856;28;19923;-52
2022/09/27 08:05:55;;;;;;;;;;;;;;;18.89;52.03;99650.72;5077904;28;19984;-49
2022/09/27 08:08:20;;;;;;;;;;;;;;;18.91;51.89;99657.59;5084580;28;19913;-50
2022/09/27 08:10:46;;;;;;;;;;;;;;;18.93;51.94;99660.06;5079713;28;19909;-48
2022/09/27 08:13:13;;;;;;;;;;;;;;;18.94;51.79;99659.88;5066549;28;20328;-49
2022/09/27 08:15:38;;;;;;;;;;;;;;;18.96;51.79;99660.50;5071817;28;19947;-52
2022/09/27 08:18:06;;;;;;;;;;;;;;;18.97;51.95;99656.78;5069911;28;19915;-48
2022/09/27 08:20:31;;;;;;;;;;;;;;;18.98;51.65;99669.22;5066237;28;20007;-48
2022/09/27 08:22:56;;;;;;;;;;;;;;;19.01;51.68;99667.16;5065714;28;19998;-49
2022/09/27 08:25:23;;;;;;;;;;;;;;;19.03;51.54;99670.47;5065976;28;19999;-51
2022/09/27 08:27:58;;;;;;;;;;;;;;;19.03;51.50;99673.16;5066783;28;20132;-51
2022/09/27 08:30:24;;;;;;;;;;;;;;;19.02;51.30;99674.22;5065978;28;19999;-52
2022/09/27 08:32:53;;;;;;;;;;;;;;;19.00;51.49;99677.13;5066541;28;19908;-53
2022/09/27 08:35:18;;;;;;;;;;;;;;;18.98;51.50;99687.22;5075519;28;19920;-49
2022/09/27 08:37:43;;;;;;;;;;;;;;;18.97;51.28;99688.28;5065241;28;19908;-52
2022/09/27 08:40:09;;;;;;;;;;;;;;;18.95;51.46;99696.56;5098258;28;19912;-49
2022/09/27 08:42:38;;;;;;;;;;;;;;;18.97;51.46;99694.50;5066184;28;19913;-50
2022/09/27 08:45:04;;;;;;;;;;;;;;;18.98;51.45;99685.38;5066231;28;19935;-51
2022/09/27 08:47:34;;;;;;;;;;;;;;;19.01;51.25;99696.78;5066136;28;19909;-49
2022/09/27 08:50:18;;;;;;;;;;;;;;;19.01;51.32;99692.22;5065977;28;20341;-52
2022/09/27 08:52:47;;;;;;;;;;;;;;;19.02;51.29;99695.75;5065676;28;19912;-50
2022/09/27 08:55:27;;;;;;;;;;;;;;;19.01;51.03;99697.63;5065534;28;19909;-47
2022/09/27 08:57:54;;;;;;;;;;;;;;;19.00;51.12;99705.91;5098191;28;19970;-48
2022/09/27 09:00:20;;;;;;;;;;;;;;;18.98;51.27;99698.00;5098207;28;19972;-48
2022/09/27 09:02:45;;;;;;;;;;;;;;;18.99;51.34;99688.94;5066166;28;19928;-52
2022/09/27 09:05:15;;;;;;;;;;;;;;;19.00;51.25;99700.53;5082828;28;19912;-48
2022/09/27 09:07:40;;;;;;;;;;;;;;;19.01;51.25;99696.78;5083955;28;20031;-46
2022/09/27 09:10:10;;;;;;;;;;;;;;;19.01;51.32;99697.63;5068060;28;20364;-47
2022/09/27 09:12:47;;;;;;;;;;;;;;;19.03;51.27;99698.28;5064831;28;19913;-50
2022/09/27 09:15:25;;;;;;;;;;;;;;;19.07;51.02;99699.50;5064876;28;19917;-47
2022/09/27 09:18:30;;;;;;;;;;;;;;;19.12;51.18;99697.06;5087623;28;19909;-49
2022/09/27 09:21:01;;;;;;;;;;;;;;;19.21;50.81;99700.44;5047731;28;19913;-50
2022/09/27 09:23:41;;;;;;;;;;;;;;;19.28;50.81;99695.88;5041952;28;19956;-49
2022/09/27 09:26:12;;;;;;;;;;;;;;;19.34;50.69;99695.09;5042302;28;19913;-47
2022/09/27 09:28:52;;;;;;;;;;;;;;;19.38;50.56;99698.22;5042830;28;19909;-52
2022/09/27 09:31:29;;;;;;;;;;;;;;;19.38;50.29;99695.53;5042177;28;19909;-52
2022/09/27 09:33:58;;;;;;;;;;;;;;;19.36;50.24;99689.50;5051901;28;19915;-52
2022/09/27 09:36:23;;;;;;;;;;;;;;;19.35;50.54;99690.53;5061658;28;19924;-51
2022/09/27 09:38:53;;;;;;;;;;;;;;;19.34;50.43;99696.97;5062067;28;19909;-52
2022/09/27 09:41:26;;;;;;;;;;;;;;;19.35;50.52;99698.63;5062546;28;19924;-50
2022/09/27 09:43:59;;;;;;;;;;;;;;;19.37;50.56;99694.72;5064260;28;19984;-50
2022/09/27 09:46:26;;;;;;;;;;;;;;;19.39;50.28;99694.50;5061900;28;19920;-52
2022/09/27 09:48:58;;;;;;;;;;;;;;;19.41;50.15;99693.28;5045040;28;20554;-52
2022/09/27 09:51:28;;;;;;;;;;;;;;;19.43;50.38;99688.50;5042080;28;20404;-50
2022/09/27 09:53:54;;;;;;;;;;;;;;;19.43;50.14;99685.81;5076467;28;19940;-50
2022/09/27 09:56:22;;;;;;;;;;;;;;;19.43;50.13;99685.81;5076746;28;20445;-50
2022/09/27 09:58:53;;;;;;;;;;;;;;;19.44;49.97;99689.31;5076694;28;19912;-49
2022/09/27 10:01:29;;;;;;;;;;;;;;;19.42;50.28;99689.53;5044293;28;19923;-47
2022/09/27 10:03:55;;;;;;;;;;;;;;;19.40;50.12;99686.19;5076764;28;19917;-48
2022/09/27 10:06:20;;;;;;;;;;;;;;;19.40;49.97;99691.59;5088831;28;20385;-50
2022/09/27 10:08:46;;;;;;;;;;;;;;;19.39;50.34;99687.22;5064194;28;19923;-51
2022/09/27 10:11:22;;;;;;;;;;;;;;;19.40;50.12;99688.06;5064799;28;19909;-48
2022/09/27 10:13:47;;;;;;;;;;;;;;;19.41;50.20;99692.41;5064213;28;19913;-50
2022/09/27 10:16:13;;;;;;;;;;;;;;;19.42;50.01;99696.78;5062390;28;19955;-51
2022/09/27 10:18:40;;;;;;;;;;;;;;;19.43;50.07;99693.06;5077250;28;19909;-50
2022/09/27 10:21:06;;;;;;;;;;;;;;;19.44;50.36;99689.31;5056639;28;19915;-49
2022/09/27 10:23:31;;;;;;;;;;;;;;;19.46;50.58;99685.41;5095686;28;19912;-51
2022/09/27 10:25:57;;;;;;;;;;;;;;;19.49;50.33;99686.84;5100362;28;19950;-48
2022/09/27 10:28:32;;;;;;;;;;;;;;;19.49;50.16;99689.53;5096631;28;19909;-50
2022/09/27 10:31:01;;;;;;;;;;;;;;;19.48;50.41;99686.03;5064218;28;19939;-49
2022/09/27 10:33:27;;;;;;;;;;;;;;;19.48;50.38;99687.88;5094676;28;19999;-49
2022/09/27 10:35:52;;;;;;;;;;;;;;;19.46;50.38;99688.09;5096186;28;19916;-48
2022/09/27 10:38:17;;;;;;;;;;;;;;;19.45;50.68;99690.97;5063263;28;20323;-50
2022/09/27 10:40:42;;;;;;;;;;;;;;;19.43;50.91;99685.81;5064388;28;19920;-50
2022/09/27 10:43:26;;;;;;;;;;;;;;;19.41;50.89;99692.41;5096329;28;19912;-50
2022/09/27 10:46:00;;;;;;;;;;;;;;;19.39;51.00;99691.81;5063913;28;19908;-49
2022/09/27 10:48:25;;;;;;;;;;;;;;;19.37;51.07;99692.00;5063598;28;19936;-50
2022/09/27 10:51:01;;;;;;;;;;;;;;;19.37;51.15;99681.22;5063568;28;19917;-49
2022/09/27 10:53:26;;;;;;;;;;;;;;;19.38;51.05;99690.16;5061543;28;19913;-50
2022/09/27 10:55:51;;;;;;;;;;;;;;;19.39;51.25;99698.00;5063973;28;19909;-51
2022/09/27 10:58:32;;;;;;;;;;;;;;;19.39;51.34;99695.31;5063954;28;19920;-50
2022/09/27 11:01:01;;;;;;;;;;;;;;;19.41;51.39;99703.19;5062408;28;19935;-48
2022/09/27 11:03:27;;;;;;;;;;;;;;;19.42;51.08;99694.94;5062295;28;19924;-50
2022/09/27 11:05:54;;;;;;;;;;;;;;;19.44;51.38;99694.72;5095662;28;19955;-48
2022/09/27 11:08:28;;;;;;;;;;;;;;;19.48;51.32;99701.38;5062847;28;20281;-50
2022/09/27 11:11:05;;;;;;;;;;;;;;;19.51;51.04;99697.44;5063950;28;20315;-48
2022/09/27 11:13:33;;;;;;;;;;;;;;;19.54;51.05;99697.88;5077929;28;19979;-47
2022/09/27 11:16:17;;;;;;;;;;;;;;;19.58;51.04;99701.84;5065281;28;19909;-52
2022/09/27 11:18:51;;;;;;;;;;;;;;;19.62;51.26;99708.50;5076890;28;20010;-57
2022/09/27 11:21:23;;;;;;;;;;;;;;;19.66;51.14;99703.53;5055551;28;20061;-56
2022/09/27 11:24:07;;;;;;;;;;;;;;;19.70;51.11;99704.78;5060530;28;19917;-55
2022/09/27 11:26:35;;;;;;;;;;;;;;;19.72;50.91;99708.13;5059632;28;19916;-57
2022/09/27 11:29:01;;;;;;;;;;;;;;;19.74;50.86;99706.03;5061199;28;19916;-52
2022/09/27 11:31:35;;;;;;;;;;;;;;;19.75;50.92;99709.56;5063163;28;19978;-54
2022/09/27 11:34:24;;;;;;;;;;;;;;;19.75;50.83;99710.41;5066794;28;19915;-57
2022/09/27 11:37:07;;;;;;;;;;;;;;;19.78;50.95;99710.00;5060487;28;19909;-56
2022/09/27 11:39:41;;;;;;;;;;;;;;;19.77;50.89;99713.75;5062730;28;19909;-51
2022/09/27 11:42:11;;;;;;;;;;;;;;;19.79;50.99;99716.22;5062883;28;20363;-56
2022/09/27 11:44:39;;;;;;;;;;;;;;;19.78;50.99;99718.09;5062438;28;19931;-56
2022/09/27 11:47:37;;;;;;;;;;;;;;;19.77;51.43;99713.75;5062380;28;19912;-57
2022/09/27 11:50:06;;;;;;;;;;;;;;;19.75;51.44;99715.78;5060886;28;20006;-54
2022/09/27 11:52:44;;;;;;;;;;;;;;;19.73;51.25;99707.91;5061534;28;19912;-56
2022/09/27 11:55:15;;;;;;;;;;;;;;;19.72;51.19;99703.56;5084381;28;20254;-56
2022/09/27 11:57:46;;;;;;;;;;;;;;;19.72;51.31;99710.81;5062437;28;19912;-56
2022/09/27 12:00:14;;;;;;;;;;;;;;;19.71;51.71;99704.59;5062004;28;19959;-54
2022/09/27 12:02:58;;;;;;;;;;;;;;;19.70;51.52;99702.09;5061154;28;19920;-51
2022/09/27 12:05:32;;;;;;;;;;;;;;;19.69;51.52;99701.25;5062074;28;19912;-56
2022/09/27 12:08:16;;;;;;;;;;;;;;;19.45;51.80;99662.19;5062288;28;19946;-55
2022/09/27 12:10:41;;;;;;;;;;;;;;;19.71;52.23;99695.69;5062629;28;20503;-51
2022/09/27 12:13:07;;;;;;;;;;;;;;;19.72;52.19;99695.47;5062945;28;20138;-54
2022/09/27 12:15:33;;;;;;;;;;;;;;;19.76;52.27;99689.69;5064889;28;19931;-54
2022/09/27 12:18:06;;;;;;;;;;;;;;;19.79;52.26;99686.56;5066073;28;19912;-53
2022/09/27 12:20:33;;;;;;;;;;;;;;;19.81;52.20;99682.63;5047751;28;20349;-55
2022/09/27 12:23:03;;;;;;;;;;;;;;;19.84;52.26;99694.88;5064385;28;19955;-54
2022/09/27 12:25:29;;;;;;;;;;;;;;;19.86;52.11;99690.94;5064363;28;19909;-51
2022/09/27 12:28:17;;;;;;;;;;;;;;;19.88;51.68;99688.88;5064363;28;19908;-53
2022/09/27 12:30:45;;;;;;;;;;;;;;;19.91;51.98;99693.00;5065242;28;20696;-53
2022/09/27 12:33:17;;;;;;;;;;;;;;;19.94;51.92;99681.81;5066085;28;19913;-58
2022/09/27 12:35:47;;;;;;;;;;;;;;;19.96;51.79;99686.00;5064386;28;20278;-58
2022/09/27 12:38:16;;;;;;;;;;;;;;;20.00;51.51;99685.56;5064089;28;19912;-61
2022/09/27 12:40:46;;;;;;;;;;;;;;;20.01;51.36;99687.22;5097657;28;19931;-62
2022/09/27 12:43:22;;;;;;;;;;;;;;;20.02;51.28;99689.72;5065472;28;19917;-60
2022/09/27 12:45:47;;;;;;;;;;;;;;;20.03;51.25;99690.56;5066175;28;19915;-63
2022/09/27 12:48:31;;;;;;;;;;;;;;;20.04;51.50;99690.34;5065510;28;20007;-62
2022/09/27 12:50:59;;;;;;;;;;;;;;;20.04;51.32;99693.03;5065291;28;19936;-62
2022/09/27 12:53:29;;;;;;;;;;;;;;;20.05;51.36;99694.72;5063683;28;19909;-63
2022/09/27 12:55:57;;;;;;;;;;;;;;;20.04;51.40;99694.91;5063908;28;19908;-52